الصفحة الرئيسية
METAR-TAF:

METAR-TAF

مطار :

مطار الملكة علياء الدولي

عمان-مطار الملكة علياء الدولي, الأردن

دائرة عرض: 31-40N, خط طول: 035-58E, ارتفاع: 721 متر

مراقبة الطقس الحالي

تاريخ ووقت الإصدار 32 دقيقة قبل الساعة 18:00UTC
رياح هادئة
درجة الحرارة 9°درجة مئوية
الرطوبة 66%
ضغط 1017 hPa
الرؤية: 5000 متر
العجاج

METAR: OJAI 141800Z 00000KT 5000 HZ NSC 09/03 Q1017 NOSIG

زمن: 20:32 (18:32 UTC)

توقعات

تاريخ ووقت الإصدار 1ساعة و 33 دقيقة قبل الساعة 16:59UTC
التوقعات صالحة من14 الساعة 18 UTC إلى 15 الساعة 24 UTC
ريح 4 عقدة من الجنوب الغربي
الرؤية: 5000 متر
العجاج
نظرية الاحتمالات 40%
من 15 الساعة 02 UTC إلى 15 الساعة 06 UTC
الرؤية: 4000 متر
غشاء
نظرية الاحتمالات 30% :
مؤقت
من 15 الساعة 12 UTC إلى 15 الساعة 24 UTC
ريح 14 عقدة من الشرق/الجنوب الشرقي
الرؤية: 3000 متر
غيوم متفرقة على ارتفاع 4000 قدم
غيوم مفككة على ارتفاع 8000 قدم
مطر خفيف, غبار

TAF: OJAI 141659Z 1418/1524 22004KT 5000 HZ NSC PROB40 1502/1506 4000 BR PROB30 TEMPO 1512/1524 12014KT 3000 -RA DU SCT040 BKN080

أرصاد الطقس والتوقعات من أكثر من 4000 مطار (تقارير الطقس للمطار METAR والتنبؤ بالطقس بالمطارTAF).

المحطات المتاحة هي النقط الصفراء والحمراء على الخريطة.

حرك المؤشر فوق النقطة لمعرفة اسم المحطة.

ثم انقر لمعرفة أرصاد وتوقعات الطقس.

لتغيير الخارطة: اضغط على الأزرار الخضراء مع رمز الصليب الأسود للتكبير. على الزر الأخضر مع شرطة للتصغير، أو على الأسهم الخضراء للخرائط المجاورة.


METAR-TAF: